Tipton Airport Fort Meade(Odenton) US
ICAO: KFME
IATA: FME
Category: Medium
Scheduled Services: No

Elevation: 150 ft
TransAlt. 18000 ft.

Airport Communications:
POTOMAC APP DEP:119.7
AWOS 3:123.925
CTAF/UNICOM:123.05

KFME Zoom In..

If you have problems with the map follow the link
https://www.worldairports.se/pages/airport.php?
ICAO=KFME

Runways:

(A) RW 10 length 3000 ft width 75 ft
---- / hdg 104

(B) RW 28 length 3000 ft width 75 ft
---- / hdg 284

Location; KFME
Day. 21 / Time. 20.06 Zulu
* Altimeter: 30.47
* Temperature: 01° c. 33.8°f.
* Wind from: 350° Speed 04 kn.
Dewpoint: -09° c.
Visibility: 10 Statute Miles.
Clouds: Clear (automated report).

KFME 212006Z AUTO 35004KT 10SM CLR 01/M09 A3047 RMK AO1


Wind From 350°
Speed 04 kn.

 
 
jpsmedia worldairports.se 2020   terms of use